Portada
METAR-TAF:

METAR-TAF

Aeropuertos :

Gran Canaria, España

Aeropuerto de Gran Canaria

latitud: 27-56N, longitud: 015-23W, altitud: 23 m

Observación

El informe se hizo hace 22 minutos, a las 10:30 UTC
Viento 27 kt del norte con ráfagas de 37 kt
Temperatura 24°C
Humedad 61%
Presión 1016 hPa
Visibilidad 10 km o más
Escasas nubes a una altura de 2500 ft

METAR: GCLP 181030Z 01027G37KT 9999 FEW025 24/16 Q1016 NOSIG

Hora: 11:52 (10:52 UTC)

Pronóstico

El informe se hizo hace 2 horas y 52 minutos, a las 08:00 UTC
Pronóstico válido del 18 a las 09 UTC al 19 a las 09 UTC
Viento 28 kt del norte
Visibilidad 10 km o más
Escasas nubes a una altura de 3000 ft
Temporalmente
del 18 a las 09 UTC al 19 a las 09 UTC
Viento 28 kt del norte con ráfagas de 38 kt

TAF: GCLP 180800Z 1809/1909 01028KT 9999 FEW030 TX24/1814Z TN20/1906Z TEMPO 1809/1909 01028G38KT

Observaciones y pronósticos meteorológicos de más de 4000 aeropuertos (mensajes METAR y TAF).

Los puntos amarillos y rojos representan las estaciones disponibles.

Ponga el ratón en el punto deseado para ver el nombre de la estación.

Haga clic para ver las observaciones y los pronósticos meteorológicos.

Para cambiar el mapa : haga clic en los botones verdes con una cruz de color negro para hacer un zoom, en el botón verde con un guión para alejar o en las flechas verdes para mapas adyacentes.


METAR-TAF: